sensor_id;sensor_type;location;lat;lon;timestamp;P1;durP1;ratioP1;P2;durP2;ratioP2
10154;SDS011;5118;48.570;7.916;2023-03-14T00:02:11;2.30;;;1.30;;
10154;SDS011;5118;48.570;7.916;2023-03-14T00:04:40;1.40;;;1.30;;
10154;SDS011;5118;48.570;7.916;2023-03-14T00:07:11;3.13;;;1.40;;
10154;SDS011;5118;48.570;7.916;2023-03-14T00:09:40;1.70;;;1.30;;
10154;SDS011;5118;48.570;7.916;2023-03-14T00:12:08;1.57;;;1.40;;
10154;SDS011;5118;48.570;7.916;2023-03-14T00:14:37;1.50;;;1.40;;
10154;SDS011;5118;48.570;7.916;2023-03-14T00:17:05;1.53;;;1.17;;
10154;SDS011;5118;48.570;7.916;2023-03-14T00:19:33;2.03;;;1.30;;
10154;SDS011;5118;48.570;7.916;2023-03-14T00:22:01;3.23;;;1.30;;
10154;SDS011;5118;48.570;7.916;2023-03-14T00:24:31;1.83;;;1.30;;
10154;SDS011;5118;48.570;7.916;2023-03-14T00:27:00;1.23;;;1.10;;
10154;SDS011;5118;48.570;7.916;2023-03-14T00:29:28;3.30;;;1.40;;
10154;SDS011;5118;48.570;7.916;2023-03-14T00:32:00;1.47;;;1.30;;
10154;SDS011;5118;48.570;7.916;2023-03-14T00:34:28;3.67;;;1.40;;
10154;SDS011;5118;48.570;7.916;2023-03-14T00:36:59;2.80;;;1.40;;
10154;SDS011;5118;48.570;7.916;2023-03-14T00:39:28;1.10;;;1.10;;
10154;SDS011;5118;48.570;7.916;2023-03-14T00:41:57;2.50;;;1.40;;
10154;SDS011;5118;48.570;7.916;2023-03-14T00:44:28;1.47;;;1.23;;
10154;SDS011;5118;48.570;7.916;2023-03-14T00:46:56;2.03;;;1.10;;
10154;SDS011;5118;48.570;7.916;2023-03-14T00:49:25;1.83;;;1.30;;
10154;SDS011;5118;48.570;7.916;2023-03-14T00:51:53;1.37;;;1.27;;
10154;SDS011;5118;48.570;7.916;2023-03-14T00:54:21;2.57;;;1.13;;
10154;SDS011;5118;48.570;7.916;2023-03-14T00:56:50;1.10;;;1.00;;
10154;SDS011;5118;48.570;7.916;2023-03-14T00:59:20;1.40;;;1.30;;
10154;SDS011;5118;48.570;7.916;2023-03-14T01:01:48;2.30;;;1.07;;
10154;SDS011;5118;48.570;7.916;2023-03-14T01:04:18;2.33;;;1.20;;
10154;SDS011;5118;48.570;7.916;2023-03-14T01:06:46;1.77;;;1.30;;
10154;SDS011;5118;48.570;7.916;2023-03-14T01:09:14;2.10;;;1.20;;
10154;SDS011;5118;48.570;7.916;2023-03-14T01:11:44;2.23;;;1.17;;
10154;SDS011;5118;48.570;7.916;2023-03-14T01:14:13;1.70;;;1.07;;
10154;SDS011;5118;48.570;7.916;2023-03-14T01:16:42;3.07;;;0.97;;
10154;SDS011;5118;48.570;7.916;2023-03-14T01:19:11;1.10;;;1.10;;
10154;SDS011;5118;48.570;7.916;2023-03-14T01:21:39;1.63;;;0.90;;
10154;SDS011;5118;48.570;7.916;2023-03-14T01:24:10;0.97;;;0.90;;
10154;SDS011;5118;48.570;7.916;2023-03-14T01:26:39;1.67;;;1.17;;
10154;SDS011;5118;48.570;7.916;2023-03-14T01:29:08;1.20;;;1.10;;
10154;SDS011;5118;48.570;7.916;2023-03-14T01:31:38;1.30;;;1.00;;
10154;SDS011;5118;48.570;7.916;2023-03-14T01:34:08;1.83;;;1.00;;
10154;SDS011;5118;48.570;7.916;2023-03-14T01:36:36;1.33;;;1.00;;
10154;SDS011;5118;48.570;7.916;2023-03-14T01:39:05;1.00;;;0.90;;
10154;SDS011;5118;48.570;7.916;2023-03-14T01:41:34;1.53;;;1.10;;
10154;SDS011;5118;48.570;7.916;2023-03-14T01:44:03;1.10;;;1.00;;
10154;SDS011;5118;48.570;7.916;2023-03-14T01:46:36;1.67;;;1.10;;
10154;SDS011;5118;48.570;7.916;2023-03-14T01:49:13;1.53;;;1.10;;
10154;SDS011;5118;48.570;7.916;2023-03-14T01:51:53;1.70;;;1.03;;
10154;SDS011;5118;48.570;7.916;2023-03-14T01:54:25;1.23;;;1.10;;
10154;SDS011;5118;48.570;7.916;2023-03-14T01:56:57;1.23;;;1.10;;
10154;SDS011;5118;48.570;7.916;2023-03-14T01:59:31;1.90;;;1.33;;
10154;SDS011;5118;48.570;7.916;2023-03-14T02:02:02;2.00;;;1.20;;
10154;SDS011;5118;48.570;7.916;2023-03-14T02:04:35;1.47;;;1.10;;
10154;SDS011;5118;48.570;7.916;2023-03-14T02:07:06;2.50;;;1.20;;
10154;SDS011;5118;48.570;7.916;2023-03-14T02:09:44;1.20;;;1.07;;
10154;SDS011;5118;48.570;7.916;2023-03-14T02:12:20;1.80;;;1.30;;
10154;SDS011;5118;48.570;7.916;2023-03-14T02:15:07;1.90;;;1.20;;
10154;SDS011;5118;48.570;7.916;2023-03-14T02:17:49;2.70;;;1.10;;
10154;SDS011;5118;48.570;7.916;2023-03-14T02:20:46;2.13;;;1.20;;
10154;SDS011;5118;48.570;7.916;2023-03-14T02:23:20;2.43;;;1.23;;
10154;SDS011;5118;48.570;7.916;2023-03-14T02:25:57;2.27;;;1.20;;
10154;SDS011;5118;48.570;7.916;2023-03-14T02:28:30;2.10;;;1.00;;
10154;SDS011;5118;48.570;7.916;2023-03-14T02:31:00;2.80;;;1.20;;
10154;SDS011;5118;48.570;7.916;2023-03-14T02:33:32;1.60;;;1.07;;
10154;SDS011;5118;48.570;7.916;2023-03-14T02:36:04;2.63;;;1.37;;
10154;SDS011;5118;48.570;7.916;2023-03-14T02:38:35;3.93;;;1.30;;
10154;SDS011;5118;48.570;7.916;2023-03-14T02:41:08;3.90;;;1.53;;
10154;SDS011;5118;48.570;7.916;2023-03-14T02:43:44;1.50;;;1.13;;
10154;SDS011;5118;48.570;7.916;2023-03-14T02:46:14;2.87;;;1.20;;
10154;SDS011;5118;48.570;7.916;2023-03-14T02:48:46;2.53;;;1.23;;
10154;SDS011;5118;48.570;7.916;2023-03-14T02:51:17;2.40;;;1.40;;
10154;SDS011;5118;48.570;7.916;2023-03-14T02:53:47;2.00;;;0.93;;
10154;SDS011;5118;48.570;7.916;2023-03-14T02:56:15;3.30;;;1.33;;
10154;SDS011;5118;48.570;7.916;2023-03-14T02:58:45;2.83;;;1.40;;
10154;SDS011;5118;48.570;7.916;2023-03-14T03:01:41;3.30;;;1.40;;
10154;SDS011;5118;48.570;7.916;2023-03-14T03:04:10;2.03;;;1.10;;
10154;SDS011;5118;48.570;7.916;2023-03-14T03:06:38;2.77;;;1.40;;
10154;SDS011;5118;48.570;7.916;2023-03-14T03:09:07;3.70;;;1.10;;
10154;SDS011;5118;48.570;7.916;2023-03-14T03:11:35;2.27;;;1.40;;
10154;SDS011;5118;48.570;7.916;2023-03-14T03:14:06;4.30;;;1.50;;
10154;SDS011;5118;48.570;7.916;2023-03-14T03:16:34;3.87;;;1.47;;
10154;SDS011;5118;48.570;7.916;2023-03-14T03:19:03;2.97;;;1.17;;
10154;SDS011;5118;48.570;7.916;2023-03-14T03:21:31;2.10;;;1.20;;
10154;SDS011;5118;48.570;7.916;2023-03-14T03:23:59;3.10;;;1.30;;
10154;SDS011;5118;48.570;7.916;2023-03-14T03:26:28;3.80;;;1.40;;
10154;SDS011;5118;48.570;7.916;2023-03-14T03:28:56;3.17;;;1.27;;
10154;SDS011;5118;48.570;7.916;2023-03-14T03:31:26;3.00;;;1.20;;
10154;SDS011;5118;48.570;7.916;2023-03-14T03:33:54;3.70;;;1.40;;
10154;SDS011;5118;48.570;7.916;2023-03-14T03:36:24;3.23;;;1.20;;
10154;SDS011;5118;48.570;7.916;2023-03-14T03:38:53;3.50;;;1.03;;
10154;SDS011;5118;48.570;7.916;2023-03-14T03:41:23;3.07;;;1.30;;
10154;SDS011;5118;48.570;7.916;2023-03-14T03:43:52;4.70;;;1.10;;
10154;SDS011;5118;48.570;7.916;2023-03-14T03:46:21;3.37;;;1.30;;
10154;SDS011;5118;48.570;7.916;2023-03-14T03:48:55;3.83;;;1.40;;
10154;SDS011;5118;48.570;7.916;2023-03-14T03:51:25;3.33;;;1.40;;
10154;SDS011;5118;48.570;7.916;2023-03-14T03:53:55;2.83;;;1.60;;
10154;SDS011;5118;48.570;7.916;2023-03-14T03:56:28;4.40;;;1.50;;
10154;SDS011;5118;48.570;7.916;2023-03-14T03:58:59;2.97;;;1.70;;
10154;SDS011;5118;48.570;7.916;2023-03-14T04:01:27;2.97;;;1.40;;
10154;SDS011;5118;48.570;7.916;2023-03-14T04:03:59;2.47;;;1.23;;
10154;SDS011;5118;48.570;7.916;2023-03-14T04:06:28;2.70;;;1.63;;
10154;SDS011;5118;48.570;7.916;2023-03-14T04:08:58;2.90;;;1.30;;
10154;SDS011;5118;48.570;7.916;2023-03-14T04:11:35;4.90;;;3.03;;
10154;SDS011;5118;48.570;7.916;2023-03-14T04:14:11;3.90;;;1.70;;
10154;SDS011;5118;48.570;7.916;2023-03-14T04:16:40;2.77;;;1.50;;
10154;SDS011;5118;48.570;7.916;2023-03-14T04:19:14;6.43;;;1.30;;
10154;SDS011;5118;48.570;7.916;2023-03-14T04:21:43;4.60;;;1.40;;
10154;SDS011;5118;48.570;7.916;2023-03-14T04:24:13;2.80;;;1.00;;
10154;SDS011;5118;48.570;7.916;2023-03-14T04:26:45;5.37;;;1.37;;
10154;SDS011;5118;48.570;7.916;2023-03-14T04:29:14;1.73;;;1.20;;
10154;SDS011;5118;48.570;7.916;2023-03-14T04:31:45;3.43;;;1.20;;
10154;SDS011;5118;48.570;7.916;2023-03-14T04:34:14;4.83;;;1.20;;
10154;SDS011;5118;48.570;7.916;2023-03-14T04:36:48;2.83;;;1.10;;
10154;SDS011;5118;48.570;7.916;2023-03-14T04:39:22;4.23;;;1.60;;
10154;SDS011;5118;48.570;7.916;2023-03-14T04:42:19;5.13;;;1.27;;
10154;SDS011;5118;48.570;7.916;2023-03-14T04:44:48;2.50;;;1.30;;
10154;SDS011;5118;48.570;7.916;2023-03-14T04:47:19;2.80;;;1.20;;
10154;SDS011;5118;48.570;7.916;2023-03-14T04:49:51;2.80;;;1.10;;
10154;SDS011;5118;48.570;7.916;2023-03-14T04:52:22;2.97;;;1.17;;
10154;SDS011;5118;48.570;7.916;2023-03-14T04:54:51;2.10;;;1.10;;
10154;SDS011;5118;48.570;7.916;2023-03-14T04:57:21;2.93;;;0.93;;
10154;SDS011;5118;48.570;7.916;2023-03-14T04:59:50;3.07;;;1.20;;
10154;SDS011;5118;48.570;7.916;2023-03-14T05:02:36;4.43;;;1.40;;
10154;SDS011;5118;48.570;7.916;2023-03-14T05:05:13;2.90;;;1.13;;
10154;SDS011;5118;48.570;7.916;2023-03-14T05:08:00;3.30;;;1.07;;
10154;SDS011;5118;48.570;7.916;2023-03-14T05:10:44;1.37;;;0.87;;
10154;SDS011;5118;48.570;7.916;2023-03-14T05:13:34;2.47;;;1.17;;
10154;SDS011;5118;48.570;7.916;2023-03-14T05:16:19;2.73;;;1.20;;
10154;SDS011;5118;48.570;7.916;2023-03-14T05:19:09;2.20;;;0.90;;
10154;SDS011;5118;48.570;7.916;2023-03-14T05:22:01;2.53;;;1.20;;
10154;SDS011;5118;48.570;7.916;2023-03-14T05:24:29;2.60;;;1.00;;
10154;SDS011;5118;48.570;7.916;2023-03-14T05:27:01;3.00;;;1.20;;
10154;SDS011;5118;48.570;7.916;2023-03-14T05:29:40;2.70;;;1.23;;
10154;SDS011;5118;48.570;7.916;2023-03-14T05:32:22;3.07;;;1.30;;
10154;SDS011;5118;48.570;7.916;2023-03-14T05:35:11;2.43;;;1.30;;
10154;SDS011;5118;48.570;7.916;2023-03-14T05:37:46;3.57;;;0.93;;
10154;SDS011;5118;48.570;7.916;2023-03-14T05:40:34;1.87;;;0.83;;
10154;SDS011;5118;48.570;7.916;2023-03-14T05:43:38;3.33;;;1.27;;
10154;SDS011;5118;48.570;7.916;2023-03-14T05:46:36;3.03;;;1.27;;
10154;SDS011;5118;48.570;7.916;2023-03-14T05:49:20;2.10;;;1.00;;
10154;SDS011;5118;48.570;7.916;2023-03-14T05:52:00;3.07;;;1.00;;
10154;SDS011;5118;48.570;7.916;2023-03-14T05:54:57;2.47;;;1.10;;
10154;SDS011;5118;48.570;7.916;2023-03-14T05:57:58;1.57;;;0.90;;
10154;SDS011;5118;48.570;7.916;2023-03-14T06:00:44;2.47;;;0.90;;
10154;SDS011;5118;48.570;7.916;2023-03-14T06:03:29;2.93;;;1.00;;
10154;SDS011;5118;48.570;7.916;2023-03-14T06:05:57;1.50;;;0.97;;
10154;SDS011;5118;48.570;7.916;2023-03-14T06:08:25;3.60;;;1.80;;
10154;SDS011;5118;48.570;7.916;2023-03-14T06:10:56;4.30;;;1.97;;
10154;SDS011;5118;48.570;7.916;2023-03-14T06:13:29;2.80;;;2.00;;
10154;SDS011;5118;48.570;7.916;2023-03-14T06:15:57;2.07;;;1.47;;
10154;SDS011;5118;48.570;7.916;2023-03-14T06:18:25;2.93;;;0.90;;
10154;SDS011;5118;48.570;7.916;2023-03-14T06:20:55;2.70;;;1.20;;
10154;SDS011;5118;48.570;7.916;2023-03-14T06:23:25;1.37;;;0.93;;
10154;SDS011;5118;48.570;7.916;2023-03-14T06:25:57;2.00;;;1.17;;
10154;SDS011;5118;48.570;7.916;2023-03-14T06:28:26;1.90;;;1.13;;
10154;SDS011;5118;48.570;7.916;2023-03-14T06:31:01;2.93;;;1.00;;
10154;SDS011;5118;48.570;7.916;2023-03-14T06:33:37;1.17;;;1.07;;
10154;SDS011;5118;48.570;7.916;2023-03-14T06:36:12;2.17;;;1.07;;
10154;SDS011;5118;48.570;7.916;2023-03-14T06:38:43;2.50;;;1.00;;
10154;SDS011;5118;48.570;7.916;2023-03-14T06:41:18;1.93;;;0.97;;
10154;SDS011;5118;48.570;7.916;2023-03-14T06:43:48;0.90;;;0.90;;
10154;SDS011;5118;48.570;7.916;2023-03-14T06:46:16;1.80;;;0.80;;
10154;SDS011;5118;48.570;7.916;2023-03-14T06:48:45;1.40;;;0.77;;
10154;SDS011;5118;48.570;7.916;2023-03-14T06:51:14;1.60;;;0.80;;
10154;SDS011;5118;48.570;7.916;2023-03-14T06:53:42;0.93;;;0.87;;
10154;SDS011;5118;48.570;7.916;2023-03-14T06:59:35;0.93;;;0.73;;
10154;SDS011;5118;48.570;7.916;2023-03-14T07:02:41;2.20;;;1.17;;
10154;SDS011;5118;48.570;7.916;2023-03-14T07:10:50;3.77;;;1.80;;
10154;SDS011;5118;48.570;7.916;2023-03-14T07:24:21;4.47;;;1.80;;
10154;SDS011;5118;48.570;7.916;2023-03-14T07:27:45;1.80;;;1.00;;
10154;SDS011;5118;48.570;7.916;2023-03-14T07:37:02;1.10;;;0.73;;
10154;SDS011;5118;48.570;7.916;2023-03-14T07:46:01;1.33;;;1.00;;
10154;SDS011;5118;48.570;7.916;2023-03-14T07:50:50;1.10;;;0.90;;
10154;SDS011;5118;48.570;7.916;2023-03-14T08:05:02;2.03;;;1.10;;
10154;SDS011;5118;48.570;7.916;2023-03-14T08:07:38;2.13;;;1.00;;
10154;SDS011;5118;48.570;7.916;2023-03-14T08:14:52;2.00;;;1.30;;
10154;SDS011;5118;48.570;7.916;2023-03-14T08:17:30;1.10;;;1.00;;
10154;SDS011;5118;48.570;7.916;2023-03-14T08:20:00;0.63;;;0.60;;
10154;SDS011;5118;48.570;7.916;2023-03-14T08:22:33;1.90;;;1.20;;
10154;SDS011;5118;48.570;7.916;2023-03-14T08:25:01;1.13;;;0.80;;
10154;SDS011;5118;48.570;7.916;2023-03-14T08:27:34;1.00;;;0.87;;
10154;SDS011;5118;48.570;7.916;2023-03-14T08:30:05;1.83;;;0.80;;
10154;SDS011;5118;48.570;7.916;2023-03-14T08:32:38;2.50;;;0.90;;
10154;SDS011;5118;48.570;7.916;2023-03-14T08:35:08;0.97;;;0.50;;
10154;SDS011;5118;48.570;7.916;2023-03-14T08:37:37;0.97;;;0.87;;
10154;SDS011;5118;48.570;7.916;2023-03-14T08:40:06;0.90;;;0.80;;
10154;SDS011;5118;48.570;7.916;2023-03-14T08:42:37;1.53;;;0.90;;
10154;SDS011;5118;48.570;7.916;2023-03-14T08:45:58;1.20;;;0.80;;
10154;SDS011;5118;48.570;7.916;2023-03-14T08:49:24;4.27;;;0.40;;
10154;SDS011;5118;48.570;7.916;2023-03-14T08:51:58;0.70;;;0.60;;
10154;SDS011;5118;48.570;7.916;2023-03-14T08:54:26;1.43;;;0.53;;
10154;SDS011;5118;48.570;7.916;2023-03-14T08:56:55;0.53;;;0.53;;
10154;SDS011;5118;48.570;7.916;2023-03-14T08:59:23;1.27;;;0.50;;
10154;SDS011;5118;48.570;7.916;2023-03-14T09:01:52;0.50;;;0.50;;
10154;SDS011;5118;48.570;7.916;2023-03-14T09:04:21;1.37;;;0.77;;
10154;SDS011;5118;48.570;7.916;2023-03-14T09:06:49;0.43;;;0.30;;
10154;SDS011;5118;48.570;7.916;2023-03-14T09:09:19;0.50;;;0.50;;
10154;SDS011;5118;48.570;7.916;2023-03-14T09:11:49;0.50;;;0.40;;
10154;SDS011;5118;48.570;7.916;2023-03-14T09:14:18;0.50;;;0.50;;
10154;SDS011;5118;48.570;7.916;2023-03-14T09:16:48;0.70;;;0.50;;
10154;SDS011;5118;48.570;7.916;2023-03-14T09:19:17;0.50;;;0.50;;
10154;SDS011;5118;48.570;7.916;2023-03-14T09:21:45;0.43;;;0.43;;
10154;SDS011;5118;48.570;7.916;2023-03-14T09:24:14;0.50;;;0.50;;
10154;SDS011;5118;48.570;7.916;2023-03-14T09:26:43;1.10;;;0.60;;
10154;SDS011;5118;48.570;7.916;2023-03-14T09:29:12;1.53;;;1.13;;
10154;SDS011;5118;48.570;7.916;2023-03-14T09:31:40;0.60;;;0.60;;
10154;SDS011;5118;48.570;7.916;2023-03-14T09:34:09;0.63;;;0.63;;
10154;SDS011;5118;48.570;7.916;2023-03-14T09:36:37;0.50;;;0.50;;
10154;SDS011;5118;48.570;7.916;2023-03-14T09:39:06;0.83;;;0.83;;
10154;SDS011;5118;48.570;7.916;2023-03-14T09:41:35;1.07;;;0.90;;
10154;SDS011;5118;48.570;7.916;2023-03-14T09:44:10;1.07;;;1.07;;
10154;SDS011;5118;48.570;7.916;2023-03-14T09:46:43;0.47;;;0.47;;
10154;SDS011;5118;48.570;7.916;2023-03-14T09:49:17;0.50;;;0.50;;
10154;SDS011;5118;48.570;7.916;2023-03-14T09:51:49;0.70;;;0.70;;
10154;SDS011;5118;48.570;7.916;2023-03-14T09:54:26;0.90;;;0.60;;
10154;SDS011;5118;48.570;7.916;2023-03-14T09:56:59;0.70;;;0.70;;
10154;SDS011;5118;48.570;7.916;2023-03-14T09:59:28;1.90;;;0.60;;
10154;SDS011;5118;48.570;7.916;2023-03-14T10:01:58;0.43;;;0.43;;
10154;SDS011;5118;48.570;7.916;2023-03-14T10:04:28;0.60;;;0.60;;
10154;SDS011;5118;48.570;7.916;2023-03-14T10:06:59;0.70;;;0.70;;
10154;SDS011;5118;48.570;7.916;2023-03-14T10:09:30;1.07;;;0.70;;
10154;SDS011;5118;48.570;7.916;2023-03-14T10:11:58;0.57;;;0.47;;
10154;SDS011;5118;48.570;7.916;2023-03-14T10:14:32;0.70;;;0.50;;
10154;SDS011;5118;48.570;7.916;2023-03-14T10:17:05;4.67;;;1.40;;
10154;SDS011;5118;48.570;7.916;2023-03-14T10:19:36;3.33;;;1.03;;
10154;SDS011;5118;48.570;7.916;2023-03-14T10:22:05;0.90;;;0.87;;
10154;SDS011;5118;48.570;7.916;2023-03-14T10:24:44;0.83;;;0.77;;
10154;SDS011;5118;48.570;7.916;2023-03-14T10:27:17;1.20;;;0.70;;
10154;SDS011;5118;48.570;7.916;2023-03-14T10:29:54;1.33;;;0.80;;
10154;SDS011;5118;48.570;7.916;2023-03-14T10:32:30;1.00;;;0.90;;
10154;SDS011;5118;48.570;7.916;2023-03-14T10:35:06;1.10;;;0.80;;
10154;SDS011;5118;48.570;7.916;2023-03-14T10:37:51;2.17;;;1.80;;
10154;SDS011;5118;48.570;7.916;2023-03-14T10:40:24;1.63;;;1.53;;
10154;SDS011;5118;48.570;7.916;2023-03-14T10:42:57;1.10;;;1.00;;
10154;SDS011;5118;48.570;7.916;2023-03-14T10:45:38;0.90;;;0.90;;
10154;SDS011;5118;48.570;7.916;2023-03-14T10:48:20;1.70;;;0.87;;
10154;SDS011;5118;48.570;7.916;2023-03-14T10:50:54;0.60;;;0.60;;
10154;SDS011;5118;48.570;7.916;2023-03-14T10:53:24;0.83;;;0.83;;
10154;SDS011;5118;48.570;7.916;2023-03-14T10:55:54;0.90;;;0.80;;
10154;SDS011;5118;48.570;7.916;2023-03-14T10:58:25;0.70;;;0.70;;
10154;SDS011;5118;48.570;7.916;2023-03-14T11:01:02;1.00;;;0.97;;
10154;SDS011;5118;48.570;7.916;2023-03-14T11:03:40;1.67;;;1.10;;
10154;SDS011;5118;48.570;7.916;2023-03-14T11:06:18;1.10;;;1.00;;
10154;SDS011;5118;48.570;7.916;2023-03-14T11:08:52;1.67;;;0.80;;
10154;SDS011;5118;48.570;7.916;2023-03-14T11:11:32;0.90;;;0.60;;
10154;SDS011;5118;48.570;7.916;2023-03-14T11:14:03;1.13;;;1.00;;
10154;SDS011;5118;48.570;7.916;2023-03-14T11:16:43;1.13;;;0.90;;
10154;SDS011;5118;48.570;7.916;2023-03-14T11:19:22;0.97;;;0.70;;
10154;SDS011;5118;48.570;7.916;2023-03-14T11:22:08;1.27;;;0.97;;
10154;SDS011;5118;48.570;7.916;2023-03-14T11:27:41;1.00;;;1.00;;
10154;SDS011;5118;48.570;7.916;2023-03-14T11:30:16;0.93;;;0.90;;
10154;SDS011;5118;48.570;7.916;2023-03-14T11:32:50;0.60;;;0.60;;
10154;SDS011;5118;48.570;7.916;2023-03-14T11:35:28;0.90;;;0.90;;
10154;SDS011;5118;48.570;7.916;2023-03-14T11:38:03;1.03;;;0.87;;
10154;SDS011;5118;48.570;7.916;2023-03-14T11:40:39;1.80;;;0.93;;
10154;SDS011;5118;48.570;7.916;2023-03-14T11:43:10;1.20;;;0.87;;
10154;SDS011;5118;48.570;7.916;2023-03-14T11:45:42;1.30;;;0.90;;
10154;SDS011;5118;48.570;7.916;2023-03-14T11:48:24;0.83;;;0.83;;
10154;SDS011;5118;48.570;7.916;2023-03-14T11:51:04;3.43;;;2.70;;
10154;SDS011;5118;48.570;7.916;2023-03-14T11:53:41;2.37;;;1.20;;
10154;SDS011;5118;48.570;7.916;2023-03-14T11:56:18;4.00;;;2.67;;
10154;SDS011;5118;48.570;7.916;2023-03-14T11:58:55;1.23;;;1.03;;
10154;SDS011;5118;48.570;7.916;2023-03-14T12:01:27;3.13;;;1.40;;
10154;SDS011;5118;48.570;7.916;2023-03-14T12:04:04;1.80;;;1.20;;
10154;SDS011;5118;48.570;7.916;2023-03-14T12:06:37;1.50;;;1.40;;
10154;SDS011;5118;48.570;7.916;2023-03-14T12:09:13;2.40;;;1.90;;
10154;SDS011;5118;48.570;7.916;2023-03-14T12:11:45;3.83;;;3.10;;
10154;SDS011;5118;48.570;7.916;2023-03-14T12:14:20;3.80;;;1.33;;
10154;SDS011;5118;48.570;7.916;2023-03-14T12:16:53;0.83;;;0.70;;
10154;SDS011;5118;48.570;7.916;2023-03-14T12:19:26;0.83;;;0.83;;
10154;SDS011;5118;48.570;7.916;2023-03-14T12:22:08;1.20;;;1.10;;
10154;SDS011;5118;48.570;7.916;2023-03-14T12:24:45;1.10;;;0.73;;
10154;SDS011;5118;48.570;7.916;2023-03-14T12:30:15;2.63;;;0.97;;
10154;SDS011;5118;48.570;7.916;2023-03-14T12:35:51;1.77;;;1.13;;
10154;SDS011;5118;48.570;7.916;2023-03-14T12:38:23;1.63;;;1.10;;
10154;SDS011;5118;48.570;7.916;2023-03-14T12:40:58;1.43;;;1.10;;
10154;SDS011;5118;48.570;7.916;2023-03-14T12:43:31;1.80;;;1.03;;
10154;SDS011;5118;48.570;7.916;2023-03-14T12:46:08;1.17;;;1.07;;
10154;SDS011;5118;48.570;7.916;2023-03-14T12:48:44;4.23;;;2.03;;
10154;SDS011;5118;48.570;7.916;2023-03-14T12:51:15;6.73;;;2.93;;
10154;SDS011;5118;48.570;7.916;2023-03-14T12:53:50;2.60;;;1.10;;
10154;SDS011;5118;48.570;7.916;2023-03-14T12:56:43;3.03;;;1.70;;
10154;SDS011;5118;48.570;7.916;2023-03-14T12:59:30;1.17;;;0.80;;
10154;SDS011;5118;48.570;7.916;2023-03-14T13:02:14;1.23;;;0.93;;
10154;SDS011;5118;48.570;7.916;2023-03-14T13:04:50;1.80;;;1.33;;
10154;SDS011;5118;48.570;7.916;2023-03-14T13:07:36;3.10;;;1.30;;
10154;SDS011;5118;48.570;7.916;2023-03-14T13:10:38;1.50;;;1.10;;
10154;SDS011;5118;48.570;7.916;2023-03-14T13:13:17;1.73;;;0.97;;
10154;SDS011;5118;48.570;7.916;2023-03-14T13:15:48;1.30;;;0.80;;
10154;SDS011;5118;48.570;7.916;2023-03-14T13:18:26;0.97;;;0.80;;
10154;SDS011;5118;48.570;7.916;2023-03-14T13:20:58;1.63;;;1.20;;
10154;SDS011;5118;48.570;7.916;2023-03-14T13:23:32;1.67;;;1.10;;
10154;SDS011;5118;48.570;7.916;2023-03-14T13:26:03;2.87;;;1.00;;
10154;SDS011;5118;48.570;7.916;2023-03-14T13:28:37;0.77;;;0.77;;
10154;SDS011;5118;48.570;7.916;2023-03-14T13:31:05;2.33;;;0.93;;
10154;SDS011;5118;48.570;7.916;2023-03-14T13:33:43;2.10;;;1.20;;
10154;SDS011;5118;48.570;7.916;2023-03-14T13:36:11;2.63;;;1.10;;
10154;SDS011;5118;48.570;7.916;2023-03-14T13:38:41;2.13;;;1.20;;
10154;SDS011;5118;48.570;7.916;2023-03-14T13:41:11;1.40;;;1.00;;
10154;SDS011;5118;48.570;7.916;2023-03-14T13:43:39;1.87;;;0.97;;
10154;SDS011;5118;48.570;7.916;2023-03-14T13:46:12;1.30;;;0.90;;
10154;SDS011;5118;48.570;7.916;2023-03-14T13:48:43;1.30;;;1.00;;
10154;SDS011;5118;48.570;7.916;2023-03-14T13:51:15;2.43;;;1.40;;
10154;SDS011;5118;48.570;7.916;2023-03-14T13:53:49;2.23;;;1.10;;
10154;SDS011;5118;48.570;7.916;2023-03-14T13:56:18;5.63;;;3.03;;
10154;SDS011;5118;48.570;7.916;2023-03-14T13:58:48;3.87;;;1.43;;
10154;SDS011;5118;48.570;7.916;2023-03-14T14:01:17;2.60;;;1.20;;
10154;SDS011;5118;48.570;7.916;2023-03-14T14:03:47;1.63;;;0.90;;
10154;SDS011;5118;48.570;7.916;2023-03-14T14:06:23;2.37;;;1.17;;
10154;SDS011;5118;48.570;7.916;2023-03-14T14:08:58;2.23;;;1.20;;
10154;SDS011;5118;48.570;7.916;2023-03-14T14:11:32;3.10;;;1.20;;
10154;SDS011;5118;48.570;7.916;2023-03-14T14:14:20;1.47;;;1.00;;
10154;SDS011;5118;48.570;7.916;2023-03-14T14:16:51;2.60;;;1.23;;
10154;SDS011;5118;48.570;7.916;2023-03-14T14:19:21;1.57;;;0.60;;
10154;SDS011;5118;48.570;7.916;2023-03-14T14:21:51;4.27;;;1.40;;
10154;SDS011;5118;48.570;7.916;2023-03-14T14:24:22;2.67;;;0.90;;
10154;SDS011;5118;48.570;7.916;2023-03-14T14:26:52;3.90;;;1.17;;
10154;SDS011;5118;48.570;7.916;2023-03-14T14:29:26;2.90;;;1.20;;
10154;SDS011;5118;48.570;7.916;2023-03-14T14:32:00;1.20;;;1.00;;
10154;SDS011;5118;48.570;7.916;2023-03-14T14:34:29;1.27;;;0.87;;
10154;SDS011;5118;48.570;7.916;2023-03-14T14:37:14;2.80;;;1.13;;
10154;SDS011;5118;48.570;7.916;2023-03-14T14:39:48;3.13;;;1.27;;
10154;SDS011;5118;48.570;7.916;2023-03-14T14:42:19;2.97;;;1.13;;
10154;SDS011;5118;48.570;7.916;2023-03-14T14:44:49;1.43;;;1.10;;
10154;SDS011;5118;48.570;7.916;2023-03-14T14:47:20;2.80;;;1.50;;
10154;SDS011;5118;48.570;7.916;2023-03-14T14:49:50;2.57;;;1.30;;
10154;SDS011;5118;48.570;7.916;2023-03-14T14:52:21;3.80;;;1.17;;
10154;SDS011;5118;48.570;7.916;2023-03-14T14:55:00;3.60;;;1.40;;
10154;SDS011;5118;48.570;7.916;2023-03-14T14:57:31;3.97;;;1.50;;
10154;SDS011;5118;48.570;7.916;2023-03-14T15:00:05;1.87;;;1.10;;
10154;SDS011;5118;48.570;7.916;2023-03-14T15:02:39;3.50;;;1.20;;
10154;SDS011;5118;48.570;7.916;2023-03-14T15:05:13;2.23;;;1.10;;
10154;SDS011;5118;48.570;7.916;2023-03-14T15:07:42;3.03;;;1.27;;
10154;SDS011;5118;48.570;7.916;2023-03-14T15:10:12;3.50;;;1.27;;
10154;SDS011;5118;48.570;7.916;2023-03-14T15:12:41;4.30;;;1.03;;
10154;SDS011;5118;48.570;7.916;2023-03-14T15:15:10;2.77;;;1.30;;
10154;SDS011;5118;48.570;7.916;2023-03-14T15:17:39;2.07;;;1.17;;
10154;SDS011;5118;48.570;7.916;2023-03-14T15:20:10;2.80;;;1.30;;
10154;SDS011;5118;48.570;7.916;2023-03-14T15:22:40;4.60;;;1.50;;
10154;SDS011;5118;48.570;7.916;2023-03-14T15:25:09;4.27;;;1.27;;
10154;SDS011;5118;48.570;7.916;2023-03-14T15:27:59;3.73;;;1.30;;
10154;SDS011;5118;48.570;7.916;2023-03-14T15:30:28;2.60;;;1.40;;
10154;SDS011;5118;48.570;7.916;2023-03-14T15:32:56;3.60;;;1.30;;
10154;SDS011;5118;48.570;7.916;2023-03-14T15:35:24;3.10;;;1.60;;
10154;SDS011;5118;48.570;7.916;2023-03-14T15:37:53;2.47;;;1.23;;
10154;SDS011;5118;48.570;7.916;2023-03-14T15:40:22;3.30;;;1.67;;
10154;SDS011;5118;48.570;7.916;2023-03-14T15:42:55;3.67;;;1.53;;
10154;SDS011;5118;48.570;7.916;2023-03-14T15:45:26;2.50;;;1.50;;
10154;SDS011;5118;48.570;7.916;2023-03-14T15:47:54;4.07;;;1.50;;
10154;SDS011;5118;48.570;7.916;2023-03-14T15:50:22;3.73;;;1.80;;
10154;SDS011;5118;48.570;7.916;2023-03-14T15:52:51;7.10;;;2.20;;
10154;SDS011;5118;48.570;7.916;2023-03-14T15:55:20;2.07;;;1.60;;
10154;SDS011;5118;48.570;7.916;2023-03-14T15:57:48;5.57;;;2.10;;
10154;SDS011;5118;48.570;7.916;2023-03-14T16:00:17;4.47;;;1.60;;
10154;SDS011;5118;48.570;7.916;2023-03-14T16:02:49;4.70;;;1.93;;
10154;SDS011;5118;48.570;7.916;2023-03-14T16:05:18;6.63;;;2.23;;
10154;SDS011;5118;48.570;7.916;2023-03-14T16:07:47;7.10;;;2.50;;
10154;SDS011;5118;48.570;7.916;2023-03-14T16:10:16;3.67;;;2.00;;
10154;SDS011;5118;48.570;7.916;2023-03-14T16:12:44;4.87;;;2.10;;
10154;SDS011;5118;48.570;7.916;2023-03-14T16:15:14;2.53;;;1.57;;
10154;SDS011;5118;48.570;7.916;2023-03-14T16:17:43;4.60;;;2.00;;
10154;SDS011;5118;48.570;7.916;2023-03-14T16:20:13;5.27;;;2.03;;
10154;SDS011;5118;48.570;7.916;2023-03-14T16:22:46;7.43;;;1.80;;
10154;SDS011;5118;48.570;7.916;2023-03-14T16:25:14;4.10;;;2.30;;
10154;SDS011;5118;48.570;7.916;2023-03-14T16:27:44;7.97;;;3.60;;
10154;SDS011;5118;48.570;7.916;2023-03-14T16:30:14;5.37;;;2.70;;
10154;SDS011;5118;48.570;7.916;2023-03-14T16:32:44;4.37;;;2.20;;
10154;SDS011;5118;48.570;7.916;2023-03-14T16:35:15;4.10;;;1.70;;
10154;SDS011;5118;48.570;7.916;2023-03-14T16:37:43;4.77;;;1.90;;
10154;SDS011;5118;48.570;7.916;2023-03-14T16:40:12;5.43;;;2.07;;